sensor_id;sensor_type;location;lat;lon;timestamp;temperature;humidity
38084;DHT22;23894;51.466;7.444;2022-07-09T00:01:33;17.40;99.90
38084;DHT22;23894;51.466;7.444;2022-07-09T00:03:33;17.30;99.90
38084;DHT22;23894;51.466;7.444;2022-07-09T00:05:34;17.40;99.90
38084;DHT22;23894;51.466;7.444;2022-07-09T00:07:34;17.30;99.90
38084;DHT22;23894;51.466;7.444;2022-07-09T00:09:35;17.30;99.90
38084;DHT22;23894;51.466;7.444;2022-07-09T00:11:35;17.30;99.90
38084;DHT22;23894;51.466;7.444;2022-07-09T00:13:36;17.30;99.90
38084;DHT22;23894;51.466;7.444;2022-07-09T00:15:36;17.30;99.90
38084;DHT22;23894;51.466;7.444;2022-07-09T00:17:37;17.30;99.90
38084;DHT22;23894;51.466;7.444;2022-07-09T00:19:37;17.20;99.90
38084;DHT22;23894;51.466;7.444;2022-07-09T00:21:38;17.20;99.90
38084;DHT22;23894;51.466;7.444;2022-07-09T00:23:39;17.20;99.90
38084;DHT22;23894;51.466;7.444;2022-07-09T00:25:39;17.10;99.90
38084;DHT22;23894;51.466;7.444;2022-07-09T00:27:40;17.20;99.90
38084;DHT22;23894;51.466;7.444;2022-07-09T00:29:40;17.20;99.90
38084;DHT22;23894;51.466;7.444;2022-07-09T00:31:41;17.20;99.90
38084;DHT22;23894;51.466;7.444;2022-07-09T00:33:41;17.10;99.90
38084;DHT22;23894;51.466;7.444;2022-07-09T00:35:42;17.10;99.90
38084;DHT22;23894;51.466;7.444;2022-07-09T00:37:42;17.10;99.90
38084;DHT22;23894;51.466;7.444;2022-07-09T00:39:43;17.10;99.90
38084;DHT22;23894;51.466;7.444;2022-07-09T00:41:43;17.10;99.90
38084;DHT22;23894;51.466;7.444;2022-07-09T00:43:47;17.00;99.90
38084;DHT22;23894;51.466;7.444;2022-07-09T00:45:48;17.00;99.90
38084;DHT22;23894;51.466;7.444;2022-07-09T00:47:49;17.00;99.90
38084;DHT22;23894;51.466;7.444;2022-07-09T00:49:49;17.00;99.90
38084;DHT22;23894;51.466;7.444;2022-07-09T00:51:50;16.90;99.90
38084;DHT22;23894;51.466;7.444;2022-07-09T00:53:51;16.90;99.90
38084;DHT22;23894;51.466;7.444;2022-07-09T00:55:55;16.90;99.90
38084;DHT22;23894;51.466;7.444;2022-07-09T00:57:55;16.90;99.90
38084;DHT22;23894;51.466;7.444;2022-07-09T00:59:57;16.80;99.90
38084;DHT22;23894;51.466;7.444;2022-07-09T01:01:58;16.90;99.90
38084;DHT22;23894;51.466;7.444;2022-07-09T01:04:00;16.80;99.90
38084;DHT22;23894;51.466;7.444;2022-07-09T01:06:01;16.80;99.90
38084;DHT22;23894;51.466;7.444;2022-07-09T01:08:05;16.80;99.90
38084;DHT22;23894;51.466;7.444;2022-07-09T01:10:06;16.80;99.90
38084;DHT22;23894;51.466;7.444;2022-07-09T01:12:06;16.80;99.90
38084;DHT22;23894;51.466;7.444;2022-07-09T01:14:07;16.80;99.90
38084;DHT22;23894;51.466;7.444;2022-07-09T01:16:11;16.70;99.90
38084;DHT22;23894;51.466;7.444;2022-07-09T01:18:12;16.70;99.90
38084;DHT22;23894;51.466;7.444;2022-07-09T01:20:12;16.70;99.90
38084;DHT22;23894;51.466;7.444;2022-07-09T01:22:13;16.70;99.90
38084;DHT22;23894;51.466;7.444;2022-07-09T01:24:13;16.70;99.90
38084;DHT22;23894;51.466;7.444;2022-07-09T01:26:14;16.60;99.90
38084;DHT22;23894;51.466;7.444;2022-07-09T01:28:14;16.60;99.90
38084;DHT22;23894;51.466;7.444;2022-07-09T01:30:23;16.60;99.90
38084;DHT22;23894;51.466;7.444;2022-07-09T01:32:23;16.60;99.90
38084;DHT22;23894;51.466;7.444;2022-07-09T01:34:24;16.60;99.90
38084;DHT22;23894;51.466;7.444;2022-07-09T01:36:25;16.50;99.90
38084;DHT22;23894;51.466;7.444;2022-07-09T01:38:25;16.50;99.90
38084;DHT22;23894;51.466;7.444;2022-07-09T01:40:25;16.50;99.90
38084;DHT22;23894;51.466;7.444;2022-07-09T01:42:26;16.50;99.90
38084;DHT22;23894;51.466;7.444;2022-07-09T01:44:26;16.50;99.90
38084;DHT22;23894;51.466;7.444;2022-07-09T01:46:27;16.50;99.90
38084;DHT22;23894;51.466;7.444;2022-07-09T01:48:27;16.50;99.90
38084;DHT22;23894;51.466;7.444;2022-07-09T01:50:29;16.40;99.90
38084;DHT22;23894;51.466;7.444;2022-07-09T01:52:29;16.40;99.90
38084;DHT22;23894;51.466;7.444;2022-07-09T01:54:30;16.40;99.90
38084;DHT22;23894;51.466;7.444;2022-07-09T01:56:31;16.40;99.90
38084;DHT22;23894;51.466;7.444;2022-07-09T01:58:31;16.40;99.90
38084;DHT22;23894;51.466;7.444;2022-07-09T02:00:32;16.30;99.90
38084;DHT22;23894;51.466;7.444;2022-07-09T02:02:32;16.40;99.90
38084;DHT22;23894;51.466;7.444;2022-07-09T02:04:33;16.30;99.90
38084;DHT22;23894;51.466;7.444;2022-07-09T02:06:33;16.30;99.90
38084;DHT22;23894;51.466;7.444;2022-07-09T02:08:33;16.30;99.90
38084;DHT22;23894;51.466;7.444;2022-07-09T02:10:34;16.30;99.90
38084;DHT22;23894;51.466;7.444;2022-07-09T02:12:34;16.30;99.90
38084;DHT22;23894;51.466;7.444;2022-07-09T02:14:36;16.20;99.90
38084;DHT22;23894;51.466;7.444;2022-07-09T02:16:36;16.20;99.90
38084;DHT22;23894;51.466;7.444;2022-07-09T02:18:36;16.20;99.90
38084;DHT22;23894;51.466;7.444;2022-07-09T02:20:37;16.10;99.90
38084;DHT22;23894;51.466;7.444;2022-07-09T02:22:38;16.10;99.90
38084;DHT22;23894;51.466;7.444;2022-07-09T02:24:38;16.10;99.90
38084;DHT22;23894;51.466;7.444;2022-07-09T02:26:39;16.10;99.90
38084;DHT22;23894;51.466;7.444;2022-07-09T02:28:39;16.10;99.90
38084;DHT22;23894;51.466;7.444;2022-07-09T02:30:40;16.10;99.90
38084;DHT22;23894;51.466;7.444;2022-07-09T02:32:40;16.00;99.90
38084;DHT22;23894;51.466;7.444;2022-07-09T02:34:41;16.00;99.90
38084;DHT22;23894;51.466;7.444;2022-07-09T02:36:41;16.00;99.90
38084;DHT22;23894;51.466;7.444;2022-07-09T02:38:42;16.00;99.90
38084;DHT22;23894;51.466;7.444;2022-07-09T02:40:42;16.00;99.90
38084;DHT22;23894;51.466;7.444;2022-07-09T02:42:43;16.00;99.90
38084;DHT22;23894;51.466;7.444;2022-07-09T02:44:43;16.00;99.90
38084;DHT22;23894;51.466;7.444;2022-07-09T02:46:44;16.10;99.90
38084;DHT22;23894;51.466;7.444;2022-07-09T02:48:44;16.10;99.90
38084;DHT22;23894;51.466;7.444;2022-07-09T02:50:44;16.10;99.90
38084;DHT22;23894;51.466;7.444;2022-07-09T02:52:45;16.10;99.90
38084;DHT22;23894;51.466;7.444;2022-07-09T02:54:45;16.10;99.90
38084;DHT22;23894;51.466;7.444;2022-07-09T02:56:46;16.10;99.90
38084;DHT22;23894;51.466;7.444;2022-07-09T02:58:46;16.10;99.90
38084;DHT22;23894;51.466;7.444;2022-07-09T03:00:47;16.20;99.90
38084;DHT22;23894;51.466;7.444;2022-07-09T03:02:47;16.20;99.90
38084;DHT22;23894;51.466;7.444;2022-07-09T03:04:48;16.20;99.90
38084;DHT22;23894;51.466;7.444;2022-07-09T03:06:48;16.30;99.90
38084;DHT22;23894;51.466;7.444;2022-07-09T03:08:49;16.30;99.90
38084;DHT22;23894;51.466;7.444;2022-07-09T03:10:49;16.30;99.90
38084;DHT22;23894;51.466;7.444;2022-07-09T03:12:50;16.30;99.90
38084;DHT22;23894;51.466;7.444;2022-07-09T03:14:50;16.30;99.90
38084;DHT22;23894;51.466;7.444;2022-07-09T03:16:51;16.30;99.90
38084;DHT22;23894;51.466;7.444;2022-07-09T03:18:51;16.40;99.90
38084;DHT22;23894;51.466;7.444;2022-07-09T03:20:52;16.40;99.90
38084;DHT22;23894;51.466;7.444;2022-07-09T03:22:53;16.40;99.90
38084;DHT22;23894;51.466;7.444;2022-07-09T03:24:56;16.50;99.90
38084;DHT22;23894;51.466;7.444;2022-07-09T03:26:57;16.50;99.90
38084;DHT22;23894;51.466;7.444;2022-07-09T03:28:57;16.50;99.90
38084;DHT22;23894;51.466;7.444;2022-07-09T03:30:58;16.50;99.90
38084;DHT22;23894;51.466;7.444;2022-07-09T03:32:58;16.60;99.90
38084;DHT22;23894;51.466;7.444;2022-07-09T03:34:59;16.60;99.90
38084;DHT22;23894;51.466;7.444;2022-07-09T03:36:59;16.60;99.90
38084;DHT22;23894;51.466;7.444;2022-07-09T03:39:00;16.60;99.90
38084;DHT22;23894;51.466;7.444;2022-07-09T03:41:00;16.70;99.90
38084;DHT22;23894;51.466;7.444;2022-07-09T03:43:00;16.60;99.90
38084;DHT22;23894;51.466;7.444;2022-07-09T03:45:01;16.70;99.90
38084;DHT22;23894;51.466;7.444;2022-07-09T03:47:02;16.70;99.90
38084;DHT22;23894;51.466;7.444;2022-07-09T03:49:02;16.70;99.90
38084;DHT22;23894;51.466;7.444;2022-07-09T03:51:03;16.80;99.90
38084;DHT22;23894;51.466;7.444;2022-07-09T03:53:03;16.80;99.90
38084;DHT22;23894;51.466;7.444;2022-07-09T03:55:04;16.80;99.90
38084;DHT22;23894;51.466;7.444;2022-07-09T03:57:04;16.90;99.90
38084;DHT22;23894;51.466;7.444;2022-07-09T03:59:05;16.90;99.90
38084;DHT22;23894;51.466;7.444;2022-07-09T04:01:05;16.90;99.90
38084;DHT22;23894;51.466;7.444;2022-07-09T04:03:06;16.90;99.90
38084;DHT22;23894;51.466;7.444;2022-07-09T04:05:07;17.00;99.90
38084;DHT22;23894;51.466;7.444;2022-07-09T04:07:07;17.00;99.90
38084;DHT22;23894;51.466;7.444;2022-07-09T04:09:08;17.00;99.90
38084;DHT22;23894;51.466;7.444;2022-07-09T04:11:09;17.00;99.90
38084;DHT22;23894;51.466;7.444;2022-07-09T04:13:09;17.00;99.90
38084;DHT22;23894;51.466;7.444;2022-07-09T04:15:09;17.10;99.90
38084;DHT22;23894;51.466;7.444;2022-07-09T04:17:10;17.10;99.90
38084;DHT22;23894;51.466;7.444;2022-07-09T04:19:11;17.10;99.90
38084;DHT22;23894;51.466;7.444;2022-07-09T04:21:11;17.20;99.90
38084;DHT22;23894;51.466;7.444;2022-07-09T04:23:12;17.20;99.90
38084;DHT22;23894;51.466;7.444;2022-07-09T04:25:12;17.30;99.90
38084;DHT22;23894;51.466;7.444;2022-07-09T04:27:13;17.30;99.90
38084;DHT22;23894;51.466;7.444;2022-07-09T04:29:13;17.30;99.90
38084;DHT22;23894;51.466;7.444;2022-07-09T04:31:13;17.30;99.90
38084;DHT22;23894;51.466;7.444;2022-07-09T04:33:16;17.40;99.90
38084;DHT22;23894;51.466;7.444;2022-07-09T04:35:16;17.40;99.90
38084;DHT22;23894;51.466;7.444;2022-07-09T04:37:17;17.50;99.90
38084;DHT22;23894;51.466;7.444;2022-07-09T04:39:17;17.50;99.90
38084;DHT22;23894;51.466;7.444;2022-07-09T04:41:18;17.50;99.90
38084;DHT22;23894;51.466;7.444;2022-07-09T04:43:18;17.60;99.90
38084;DHT22;23894;51.466;7.444;2022-07-09T04:45:19;17.60;99.90
38084;DHT22;23894;51.466;7.444;2022-07-09T04:47:19;17.60;99.90
38084;DHT22;23894;51.466;7.444;2022-07-09T04:49:19;17.70;99.90
38084;DHT22;23894;51.466;7.444;2022-07-09T04:51:21;17.70;99.90
38084;DHT22;23894;51.466;7.444;2022-07-09T04:53:21;17.70;99.90
38084;DHT22;23894;51.466;7.444;2022-07-09T04:55:22;17.70;99.90
38084;DHT22;23894;51.466;7.444;2022-07-09T04:57:22;17.80;99.90
38084;DHT22;23894;51.466;7.444;2022-07-09T04:59:23;17.80;99.90
38084;DHT22;23894;51.466;7.444;2022-07-09T05:01:23;17.90;99.90
38084;DHT22;23894;51.466;7.444;2022-07-09T05:03:24;17.90;99.90
38084;DHT22;23894;51.466;7.444;2022-07-09T05:05:24;17.90;99.90
38084;DHT22;23894;51.466;7.444;2022-07-09T05:07:25;17.90;99.90
38084;DHT22;23894;51.466;7.444;2022-07-09T05:09:26;18.00;99.90
38084;DHT22;23894;51.466;7.444;2022-07-09T05:11:26;17.90;99.90
38084;DHT22;23894;51.466;7.444;2022-07-09T05:13:27;18.00;99.90
38084;DHT22;23894;51.466;7.444;2022-07-09T05:15:27;18.00;99.90
38084;DHT22;23894;51.466;7.444;2022-07-09T05:17:34;18.00;99.90
38084;DHT22;23894;51.466;7.444;2022-07-09T05:19:35;18.00;99.90
38084;DHT22;23894;51.466;7.444;2022-07-09T05:21:35;18.00;99.90
38084;DHT22;23894;51.466;7.444;2022-07-09T05:23:36;18.00;99.90
38084;DHT22;23894;51.466;7.444;2022-07-09T05:25:37;18.00;99.90
38084;DHT22;23894;51.466;7.444;2022-07-09T05:27:43;18.00;99.90
38084;DHT22;23894;51.466;7.444;2022-07-09T05:29:44;18.10;99.90
38084;DHT22;23894;51.466;7.444;2022-07-09T05:31:45;18.20;99.90
38084;DHT22;23894;51.466;7.444;2022-07-09T05:33:46;18.20;99.90
38084;DHT22;23894;51.466;7.444;2022-07-09T05:35:47;18.20;99.90
38084;DHT22;23894;51.466;7.444;2022-07-09T05:37:48;18.20;99.90
38084;DHT22;23894;51.466;7.444;2022-07-09T05:39:48;18.30;99.90
38084;DHT22;23894;51.466;7.444;2022-07-09T05:41:49;18.30;99.90
38084;DHT22;23894;51.466;7.444;2022-07-09T05:43:50;18.40;99.90
38084;DHT22;23894;51.466;7.444;2022-07-09T05:45:51;18.40;99.90
38084;DHT22;23894;51.466;7.444;2022-07-09T05:47:52;18.50;99.90
38084;DHT22;23894;51.466;7.444;2022-07-09T05:49:55;18.50;99.90
38084;DHT22;23894;51.466;7.444;2022-07-09T05:51:55;18.60;99.90
38084;DHT22;23894;51.466;7.444;2022-07-09T05:53:57;18.60;99.90
38084;DHT22;23894;51.466;7.444;2022-07-09T05:55:57;18.70;99.90
38084;DHT22;23894;51.466;7.444;2022-07-09T05:57:57;18.80;99.90
38084;DHT22;23894;51.466;7.444;2022-07-09T05:59:58;18.80;99.90
38084;DHT22;23894;51.466;7.444;2022-07-09T06:01:58;18.80;99.90
38084;DHT22;23894;51.466;7.444;2022-07-09T06:03:59;18.90;99.90
38084;DHT22;23894;51.466;7.444;2022-07-09T06:05:59;18.90;99.90
38084;DHT22;23894;51.466;7.444;2022-07-09T06:08:00;18.90;99.90
38084;DHT22;23894;51.466;7.444;2022-07-09T06:10:00;18.90;99.90
38084;DHT22;23894;51.466;7.444;2022-07-09T06:12:01;19.00;99.90
38084;DHT22;23894;51.466;7.444;2022-07-09T06:14:01;19.00;99.90
38084;DHT22;23894;51.466;7.444;2022-07-09T06:16:02;19.00;99.90
38084;DHT22;23894;51.466;7.444;2022-07-09T06:18:02;19.10;99.90
38084;DHT22;23894;51.466;7.444;2022-07-09T06:20:04;19.10;99.90
38084;DHT22;23894;51.466;7.444;2022-07-09T06:22:04;19.10;99.90
38084;DHT22;23894;51.466;7.444;2022-07-09T06:24:05;19.20;99.90
38084;DHT22;23894;51.466;7.444;2022-07-09T06:26:05;19.20;99.90
38084;DHT22;23894;51.466;7.444;2022-07-09T06:28:06;19.20;99.90
38084;DHT22;23894;51.466;7.444;2022-07-09T06:30:06;19.20;99.90
38084;DHT22;23894;51.466;7.444;2022-07-09T06:32:07;19.20;99.90
38084;DHT22;23894;51.466;7.444;2022-07-09T06:34:08;19.30;99.90
38084;DHT22;23894;51.466;7.444;2022-07-09T06:36:08;19.30;99.90
38084;DHT22;23894;51.466;7.444;2022-07-09T06:38:09;19.30;99.90
38084;DHT22;23894;51.466;7.444;2022-07-09T06:40:09;19.30;99.90
38084;DHT22;23894;51.466;7.444;2022-07-09T06:42:10;19.40;99.90
38084;DHT22;23894;51.466;7.444;2022-07-09T06:44:10;19.50;99.90
38084;DHT22;23894;51.466;7.444;2022-07-09T06:46:11;19.40;99.90
38084;DHT22;23894;51.466;7.444;2022-07-09T06:48:11;19.50;99.90
38084;DHT22;23894;51.466;7.444;2022-07-09T06:50:12;19.50;99.90
38084;DHT22;23894;51.466;7.444;2022-07-09T06:52:12;19.50;99.90
38084;DHT22;23894;51.466;7.444;2022-07-09T06:54:13;19.50;99.90
38084;DHT22;23894;51.466;7.444;2022-07-09T06:56:13;19.40;99.90
38084;DHT22;23894;51.466;7.444;2022-07-09T06:58:14;19.50;99.90
38084;DHT22;23894;51.466;7.444;2022-07-09T07:00:14;19.60;99.90
38084;DHT22;23894;51.466;7.444;2022-07-09T07:02:15;19.60;99.90
38084;DHT22;23894;51.466;7.444;2022-07-09T07:04:18;19.60;99.90
38084;DHT22;23894;51.466;7.444;2022-07-09T07:06:20;19.70;99.90
38084;DHT22;23894;51.466;7.444;2022-07-09T07:08:20;19.70;99.90
38084;DHT22;23894;51.466;7.444;2022-07-09T07:10:21;19.80;99.90
38084;DHT22;23894;51.466;7.444;2022-07-09T07:12:21;19.80;99.90
38084;DHT22;23894;51.466;7.444;2022-07-09T07:14:22;19.80;99.90
38084;DHT22;23894;51.466;7.444;2022-07-09T07:16:22;19.80;99.90
38084;DHT22;23894;51.466;7.444;2022-07-09T07:18:23;19.80;99.90
38084;DHT22;23894;51.466;7.444;2022-07-09T07:20:23;19.90;99.90
38084;DHT22;23894;51.466;7.444;2022-07-09T07:22:25;19.90;99.90
38084;DHT22;23894;51.466;7.444;2022-07-09T07:24:25;19.90;99.90
38084;DHT22;23894;51.466;7.444;2022-07-09T07:26:26;19.80;99.90
38084;DHT22;23894;51.466;7.444;2022-07-09T07:28:26;19.80;99.90
38084;DHT22;23894;51.466;7.444;2022-07-09T07:30:27;19.90;99.90
38084;DHT22;23894;51.466;7.444;2022-07-09T07:32:27;19.90;99.90
38084;DHT22;23894;51.466;7.444;2022-07-09T07:34:28;20.00;99.90
38084;DHT22;23894;51.466;7.444;2022-07-09T07:36:29;20.00;99.90
38084;DHT22;23894;51.466;7.444;2022-07-09T07:38:29;20.00;99.90
38084;DHT22;23894;51.466;7.444;2022-07-09T07:40:30;20.10;99.90
38084;DHT22;23894;51.466;7.444;2022-07-09T07:42:30;20.20;99.90
38084;DHT22;23894;51.466;7.444;2022-07-09T07:44:31;20.20;99.90
38084;DHT22;23894;51.466;7.444;2022-07-09T07:46:31;20.30;99.90
38084;DHT22;23894;51.466;7.444;2022-07-09T07:48:32;20.30;99.90
38084;DHT22;23894;51.466;7.444;2022-07-09T07:50:35;20.40;99.90
38084;DHT22;23894;51.466;7.444;2022-07-09T07:52:38;20.40;99.90
38084;DHT22;23894;51.466;7.444;2022-07-09T07:54:39;20.50;99.90
38084;DHT22;23894;51.466;7.444;2022-07-09T07:56:39;20.50;99.90
38084;DHT22;23894;51.466;7.444;2022-07-09T07:58:40;20.60;99.90
38084;DHT22;23894;51.466;7.444;2022-07-09T08:00:40;20.60;99.90
38084;DHT22;23894;51.466;7.444;2022-07-09T08:02:41;20.70;99.90
38084;DHT22;23894;51.466;7.444;2022-07-09T08:04:41;20.80;99.90
38084;DHT22;23894;51.466;7.444;2022-07-09T08:06:42;20.90;99.90
38084;DHT22;23894;51.466;7.444;2022-07-09T08:08:42;20.90;99.90
38084;DHT22;23894;51.466;7.444;2022-07-09T08:10:42;21.00;99.90
38084;DHT22;23894;51.466;7.444;2022-07-09T08:12:43;21.00;99.90
38084;DHT22;23894;51.466;7.444;2022-07-09T08:14:44;21.10;99.90
38084;DHT22;23894;51.466;7.444;2022-07-09T08:16:44;21.10;99.90
38084;DHT22;23894;51.466;7.444;2022-07-09T08:18:45;21.20;99.90
38084;DHT22;23894;51.466;7.444;2022-07-09T08:20:45;21.20;99.90
38084;DHT22;23894;51.466;7.444;2022-07-09T08:22:47;21.20;99.90
38084;DHT22;23894;51.466;7.444;2022-07-09T08:24:48;21.40;99.90
38084;DHT22;23894;51.466;7.444;2022-07-09T08:26:48;21.50;99.90
38084;DHT22;23894;51.466;7.444;2022-07-09T08:28:49;21.60;99.90
38084;DHT22;23894;51.466;7.444;2022-07-09T08:30:49;21.70;99.90
38084;DHT22;23894;51.466;7.444;2022-07-09T08:32:50;21.70;99.90
38084;DHT22;23894;51.466;7.444;2022-07-09T08:34:50;21.70;99.90
38084;DHT22;23894;51.466;7.444;2022-07-09T08:36:51;21.70;99.90
38084;DHT22;23894;51.466;7.444;2022-07-09T08:38:51;21.70;99.90
38084;DHT22;23894;51.466;7.444;2022-07-09T08:40:52;21.70;99.90
38084;DHT22;23894;51.466;7.444;2022-07-09T08:42:54;21.70;99.90
38084;DHT22;23894;51.466;7.444;2022-07-09T08:44:56;21.70;99.90
38084;DHT22;23894;51.466;7.444;2022-07-09T08:46:57;21.80;99.90
38084;DHT22;23894;51.466;7.444;2022-07-09T08:49:00;21.90;99.90
38084;DHT22;23894;51.466;7.444;2022-07-09T08:51:02;22.00;99.90
38084;DHT22;23894;51.466;7.444;2022-07-09T08:53:02;22.00;99.90
38084;DHT22;23894;51.466;7.444;2022-07-09T08:55:04;22.10;99.90
38084;DHT22;23894;51.466;7.444;2022-07-09T08:57:05;22.20;99.90
38084;DHT22;23894;51.466;7.444;2022-07-09T08:59:05;22.30;99.90
38084;DHT22;23894;51.466;7.444;2022-07-09T09:01:06;22.30;99.90
38084;DHT22;23894;51.466;7.444;2022-07-09T09:03:07;22.30;99.90
38084;DHT22;23894;51.466;7.444;2022-07-09T09:05:11;22.30;99.90
38084;DHT22;23894;51.466;7.444;2022-07-09T09:07:15;22.30;99.90
38084;DHT22;23894;51.466;7.444;2022-07-09T09:09:18;22.40;99.90
38084;DHT22;23894;51.466;7.444;2022-07-09T09:11:24;22.40;99.90
38084;DHT22;23894;51.466;7.444;2022-07-09T09:13:25;22.40;99.90
38084;DHT22;23894;51.466;7.444;2022-07-09T09:15:26;22.50;99.90
38084;DHT22;23894;51.466;7.444;2022-07-09T09:17:26;22.60;99.90
38084;DHT22;23894;51.466;7.444;2022-07-09T09:19:27;22.60;99.90
38084;DHT22;23894;51.466;7.444;2022-07-09T09:21:29;22.50;99.90
38084;DHT22;23894;51.466;7.444;2022-07-09T09:23:29;22.50;99.90
38084;DHT22;23894;51.466;7.444;2022-07-09T09:25:30;22.60;99.90
38084;DHT22;23894;51.466;7.444;2022-07-09T09:27:30;22.70;99.90
38084;DHT22;23894;51.466;7.444;2022-07-09T09:29:32;22.80;99.90
38084;DHT22;23894;51.466;7.444;2022-07-09T09:31:34;22.80;99.90
38084;DHT22;23894;51.466;7.444;2022-07-09T09:33:35;22.90;99.90
38084;DHT22;23894;51.466;7.444;2022-07-09T09:35:42;23.00;99.90
38084;DHT22;23894;51.466;7.444;2022-07-09T09:37:43;23.00;99.90
38084;DHT22;23894;51.466;7.444;2022-07-09T09:39:49;22.90;99.90
38084;DHT22;23894;51.466;7.444;2022-07-09T09:41:50;22.90;99.90
38084;DHT22;23894;51.466;7.444;2022-07-09T09:43:52;22.90;99.90
38084;DHT22;23894;51.466;7.444;2022-07-09T09:45:56;22.90;99.90
38084;DHT22;23894;51.466;7.444;2022-07-09T09:47:58;22.90;99.90
38084;DHT22;23894;51.466;7.444;2022-07-09T09:50:00;22.90;99.90
38084;DHT22;23894;51.466;7.444;2022-07-09T09:52:04;22.90;99.90
38084;DHT22;23894;51.466;7.444;2022-07-09T09:54:05;22.90;99.90
38084;DHT22;23894;51.466;7.444;2022-07-09T09:56:05;22.80;99.90
38084;DHT22;23894;51.466;7.444;2022-07-09T09:58:07;22.80;99.90
38084;DHT22;23894;51.466;7.444;2022-07-09T10:00:09;22.80;99.90
38084;DHT22;23894;51.466;7.444;2022-07-09T10:02:11;22.80;99.90
38084;DHT22;23894;51.466;7.444;2022-07-09T10:04:12;22.80;99.90
38084;DHT22;23894;51.466;7.444;2022-07-09T10:06:13;22.90;99.90
38084;DHT22;23894;51.466;7.444;2022-07-09T10:08:14;22.90;99.90
38084;DHT22;23894;51.466;7.444;2022-07-09T10:10:18;22.90;99.90
38084;DHT22;23894;51.466;7.444;2022-07-09T10:12:25;23.00;99.90
38084;DHT22;23894;51.466;7.444;2022-07-09T10:16:35;23.10;99.90
38084;DHT22;23894;51.466;7.444;2022-07-09T10:18:35;23.10;99.90
38084;DHT22;23894;51.466;7.444;2022-07-09T10:20:36;23.20;99.90
38084;DHT22;23894;51.466;7.444;2022-07-09T10:22:43;23.20;99.90
38084;DHT22;23894;51.466;7.444;2022-07-09T10:24:44;23.10;99.90
38084;DHT22;23894;51.466;7.444;2022-07-09T10:26:45;23.10;99.90
38084;DHT22;23894;51.466;7.444;2022-07-09T10:28:49;23.10;99.90
38084;DHT22;23894;51.466;7.444;2022-07-09T10:30:49;23.10;99.90
38084;DHT22;23894;51.466;7.444;2022-07-09T10:33:06;23.10;99.90
38084;DHT22;23894;51.466;7.444;2022-07-09T10:35:07;23.10;99.90
38084;DHT22;23894;51.466;7.444;2022-07-09T10:37:07;23.00;99.90
38084;DHT22;23894;51.466;7.444;2022-07-09T10:39:11;23.00;99.90
38084;DHT22;23894;51.466;7.444;2022-07-09T10:41:20;23.00;99.90
38084;DHT22;23894;51.466;7.444;2022-07-09T10:43:20;23.10;99.90
38084;DHT22;23894;51.466;7.444;2022-07-09T10:45:38;23.20;99.90
38084;DHT22;23894;51.466;7.444;2022-07-09T10:47:39;23.20;99.90
38084;DHT22;23894;51.466;7.444;2022-07-09T10:49:40;23.30;99.90
38084;DHT22;23894;51.466;7.444;2022-07-09T10:51:40;23.30;99.90
38084;DHT22;23894;51.466;7.444;2022-07-09T10:53:41;23.40;99.90
38084;DHT22;23894;51.466;7.444;2022-07-09T10:55:43;23.50;99.90
38084;DHT22;23894;51.466;7.444;2022-07-09T10:57:46;23.50;99.90
38084;DHT22;23894;51.466;7.444;2022-07-09T10:59:47;23.60;99.90
38084;DHT22;23894;51.466;7.444;2022-07-09T11:01:47;23.60;99.90
38084;DHT22;23894;51.466;7.444;2022-07-09T11:03:49;23.70;99.90
38084;DHT22;23894;51.466;7.444;2022-07-09T11:05:50;23.70;99.90
38084;DHT22;23894;51.466;7.444;2022-07-09T11:07:59;23.70;99.90
38084;DHT22;23894;51.466;7.444;2022-07-09T11:10:00;23.70;99.90
38084;DHT22;23894;51.466;7.444;2022-07-09T11:12:00;23.70;99.90
38084;DHT22;23894;51.466;7.444;2022-07-09T11:14:01;23.70;99.90
38084;DHT22;23894;51.466;7.444;2022-07-09T11:16:01;23.70;99.90
38084;DHT22;23894;51.466;7.444;2022-07-09T11:18:06;23.80;99.90
38084;DHT22;23894;51.466;7.444;2022-07-09T11:20:07;23.70;99.90
38084;DHT22;23894;51.466;7.444;2022-07-09T11:22:10;23.70;99.90
38084;DHT22;23894;51.466;7.444;2022-07-09T11:26:14;23.60;99.90
38084;DHT22;23894;51.466;7.444;2022-07-09T11:28:18;23.60;99.90
38084;DHT22;23894;51.466;7.444;2022-07-09T11:30:19;23.70;99.90
38084;DHT22;23894;51.466;7.444;2022-07-09T11:32:21;23.90;99.90
38084;DHT22;23894;51.466;7.444;2022-07-09T11:34:22;24.00;99.90
38084;DHT22;23894;51.466;7.444;2022-07-09T11:36:23;24.10;99.90
38084;DHT22;23894;51.466;7.444;2022-07-09T11:38:23;24.30;99.90
38084;DHT22;23894;51.466;7.444;2022-07-09T11:40:24;24.40;99.90
38084;DHT22;23894;51.466;7.444;2022-07-09T11:42:24;24.60;99.90
38084;DHT22;23894;51.466;7.444;2022-07-09T11:44:29;24.60;99.90
38084;DHT22;23894;51.466;7.444;2022-07-09T11:46:29;24.80;99.90
38084;DHT22;23894;51.466;7.444;2022-07-09T11:48:30;25.00;99.90
38084;DHT22;23894;51.466;7.444;2022-07-09T11:50:30;25.10;99.90
38084;DHT22;23894;51.466;7.444;2022-07-09T11:52:31;25.10;99.90
38084;DHT22;23894;51.466;7.444;2022-07-09T11:54:31;25.20;99.90
38084;DHT22;23894;51.466;7.444;2022-07-09T11:58:50;25.10;99.90
38084;DHT22;23894;51.466;7.444;2022-07-09T12:00:50;25.20;99.90
38084;DHT22;23894;51.466;7.444;2022-07-09T12:02:51;25.00;99.90
38084;DHT22;23894;51.466;7.444;2022-07-09T12:04:51;25.00;99.90
38084;DHT22;23894;51.466;7.444;2022-07-09T12:06:54;24.90;99.90
38084;DHT22;23894;51.466;7.444;2022-07-09T12:08:58;24.70;99.90
38084;DHT22;23894;51.466;7.444;2022-07-09T12:10:59;24.50;99.90
38084;DHT22;23894;51.466;7.444;2022-07-09T12:13:00;24.30;99.90
38084;DHT22;23894;51.466;7.444;2022-07-09T12:15:02;24.20;99.90
38084;DHT22;23894;51.466;7.444;2022-07-09T12:17:03;24.10;99.90
38084;DHT22;23894;51.466;7.444;2022-07-09T12:19:04;24.10;99.90
38084;DHT22;23894;51.466;7.444;2022-07-09T12:21:04;24.00;99.90
38084;DHT22;23894;51.466;7.444;2022-07-09T12:23:06;23.90;99.90
38084;DHT22;23894;51.466;7.444;2022-07-09T12:25:06;23.70;99.90
38084;DHT22;23894;51.466;7.444;2022-07-09T12:27:07;23.70;99.90
38084;DHT22;23894;51.466;7.444;2022-07-09T12:29:07;23.70;99.90
38084;DHT22;23894;51.466;7.444;2022-07-09T12:31:08;23.70;99.90
38084;DHT22;23894;51.466;7.444;2022-07-09T12:33:08;23.70;99.90
38084;DHT22;23894;51.466;7.444;2022-07-09T12:35:09;23.80;99.90
38084;DHT22;23894;51.466;7.444;2022-07-09T12:37:10;23.80;99.90
38084;DHT22;23894;51.466;7.444;2022-07-09T12:39:10;23.90;99.90
38084;DHT22;23894;51.466;7.444;2022-07-09T12:41:11;24.00;99.90
38084;DHT22;23894;51.466;7.444;2022-07-09T12:43:11;24.00;99.90
38084;DHT22;23894;51.466;7.444;2022-07-09T12:45:11;24.00;99.90
38084;DHT22;23894;51.466;7.444;2022-07-09T12:47:12;24.00;99.90
38084;DHT22;23894;51.466;7.444;2022-07-09T12:49:13;24.00;99.90
38084;DHT22;23894;51.466;7.444;2022-07-09T12:51:13;23.90;99.90